Terminal Aerodrome Forecast
Issued by NWS Kansas City/Pleasant Hill, MO

Home | Current Version | Previous Version | Text Only | Print | Product List | Glossary On
Versions: 1 2 3 4 5 6 7 8 9 10 11 12 13 14 15 16 17 18 19 20 21 22 23 24 25 26 27 28 29 30
000
FTUS43 KEAX 210106 AAA
TAFMCI
TAF AMD
KMCI 210106Z 2101/2124 14006KT 6SM BR FEW020 BKN045
     FM210800 21007KT 1SM BR BKN008
     FM211200 22007KT 3SM BR BKN020
     FM211400 21008KT 6SM BR SCT060
     FM212300 VRB04KT P6SM FEW150=

USA.gov is the U.S. government's official web portal to all federal, state and local government web resources and services.